createdAt,value
2022-12-18T00:02:05.158Z,-0.91
2022-12-18T00:05:13.764Z,-0.90
2022-12-18T00:08:28.136Z,-0.95
2022-12-18T00:11:38.141Z,-0.97
2022-12-18T00:14:53.396Z,-0.95
2022-12-18T00:18:08.127Z,-0.96
2022-12-18T00:21:12.682Z,-0.98
2022-12-18T00:24:27.117Z,-1.05
2022-12-18T00:27:45.123Z,-0.97
2022-12-18T00:31:11.154Z,-0.99
2022-12-18T00:34:13.972Z,-1.16
2022-12-18T00:37:29.123Z,-1.06
2022-12-18T00:40:45.106Z,-1.03
2022-12-18T00:44:00.121Z,-1.06
2022-12-18T00:47:15.098Z,-1.06
2022-12-18T00:50:17.970Z,-1.09
2022-12-18T00:53:33.105Z,-1.10
2022-12-18T00:56:51.004Z,-1.11
2022-12-18T01:00:06.130Z,-1.13
2022-12-18T01:03:08.649Z,-1.17
2022-12-18T01:06:24.094Z,-1.23
2022-12-18T01:09:39.093Z,-1.24
2022-12-18T01:13:01.080Z,-1.26
2022-12-18T01:16:19.161Z,-1.25
2022-12-18T01:19:34.082Z,-1.26
2022-12-18T01:22:49.144Z,-1.29
2022-12-18T01:26:04.097Z,-1.36
2022-12-18T01:29:06.079Z,-1.47
2022-12-18T01:32:21.086Z,-1.37
2022-12-18T01:35:36.115Z,-1.29
2022-12-18T01:38:51.129Z,-1.21
2022-12-18T01:42:00.118Z,-1.18
2022-12-18T01:45:21.111Z,-1.23
2022-12-18T01:48:23.152Z,-1.22
2022-12-18T01:51:38.107Z,-1.26
2022-12-18T01:54:40.152Z,-1.28
2022-12-18T01:57:57.119Z,-1.24
2022-12-18T02:01:06.090Z,-1.24
2022-12-18T02:04:35.103Z,-1.19
2022-12-18T02:08:16.103Z,-1.15
2022-12-18T02:11:54.085Z,-1.11
2022-12-18T02:15:16.524Z,-1.08
2022-12-18T02:18:40.083Z,-1.01
2022-12-18T02:22:26.303Z,-1.00
2022-12-18T02:26:00.097Z,-1.18
2022-12-18T02:29:14.083Z,-1.25
2022-12-18T02:32:37.064Z,-1.39
2022-12-18T02:35:53.133Z,-1.32
2022-12-18T02:39:03.112Z,-1.30
2022-12-18T02:42:12.947Z,-1.38
2022-12-18T02:45:28.141Z,-1.36
2022-12-18T02:48:34.889Z,-1.36
2022-12-18T02:51:58.087Z,-1.43
2022-12-18T02:55:34.785Z,-1.53
2022-12-18T02:59:10.091Z,-1.65
2022-12-18T03:02:42.269Z,-1.68
2022-12-18T03:05:52.836Z,-1.65
2022-12-18T03:09:14.076Z,-1.59
2022-12-18T03:12:31.778Z,-1.59
2022-12-18T03:15:58.090Z,-1.57
2022-12-18T03:19:12.064Z,-1.59
2022-12-18T03:22:23.218Z,-1.60
2022-12-18T03:25:35.121Z,-1.65
2022-12-18T03:28:48.360Z,-1.70
2022-12-18T03:32:06.091Z,-1.64
2022-12-18T03:35:28.091Z,-1.61
2022-12-18T03:38:37.070Z,-1.54
2022-12-18T03:41:59.069Z,-1.62
2022-12-18T03:45:53.190Z,-1.55
2022-12-18T03:49:13.210Z,-1.56
2022-12-18T03:52:33.080Z,-1.55
2022-12-18T03:55:43.194Z,-1.54
2022-12-18T03:58:53.084Z,-1.54
2022-12-18T04:02:11.156Z,-1.73
2022-12-18T04:05:27.072Z,-1.57
2022-12-18T04:08:30.089Z,-1.64
2022-12-18T04:11:45.067Z,-1.81
2022-12-18T04:15:00.079Z,-1.93
2022-12-18T04:18:08.999Z,-1.95
2022-12-18T04:21:18.062Z,-1.89
2022-12-18T04:24:33.055Z,-1.91
2022-12-18T04:27:48.062Z,-1.97
2022-12-18T04:30:50.703Z,-2.06
2022-12-18T04:34:06.061Z,-2.12
2022-12-18T04:37:14.070Z,-2.18
2022-12-18T04:40:22.838Z,-2.27
2022-12-18T04:43:38.227Z,-2.27
2022-12-18T04:46:53.106Z,-2.37
2022-12-18T04:49:55.294Z,-2.54
2022-12-18T04:53:10.088Z,-2.58
2022-12-18T04:56:18.813Z,-2.56
2022-12-18T04:59:27.069Z,-2.61
2022-12-18T05:02:35.810Z,-2.50
2022-12-18T05:05:44.058Z,-2.53
2022-12-18T05:08:52.712Z,-2.55
2022-12-18T05:12:01.088Z,-2.61
2022-12-18T05:15:23.062Z,-2.66
2022-12-18T05:18:25.855Z,-2.71
2022-12-18T05:21:41.054Z,-2.77
2022-12-18T05:24:56.052Z,-2.86
2022-12-18T05:28:04.054Z,-2.86
2022-12-18T05:31:19.094Z,-2.92
2022-12-18T05:34:27.653Z,-2.90
2022-12-18T05:37:43.382Z,-2.98
2022-12-18T05:40:53.072Z,-3.04
2022-12-18T05:44:02.038Z,-3.08
2022-12-18T05:47:17.079Z,-3.16
2022-12-18T05:50:25.749Z,-3.21
2022-12-18T05:53:42.393Z,-3.25
2022-12-18T05:56:51.679Z,-3.23
2022-12-18T06:00:06.025Z,-3.24
2022-12-18T06:03:16.159Z,-3.22
2022-12-18T06:06:34.022Z,-3.23
2022-12-18T06:09:42.088Z,-3.19
2022-12-18T06:12:50.667Z,-3.17
2022-12-18T06:16:13.088Z,-3.23
2022-12-18T06:19:21.683Z,-3.26
2022-12-18T06:22:30.038Z,-3.24
2022-12-18T06:25:47.037Z,-3.24
2022-12-18T06:28:55.975Z,-3.26
2022-12-18T06:32:05.046Z,-3.41
2022-12-18T06:35:20.060Z,-3.28
2022-12-18T06:38:36.105Z,-3.30
2022-12-18T06:41:38.245Z,-3.33
2022-12-18T06:44:54.048Z,-3.34
2022-12-18T06:48:09.075Z,-3.43
2022-12-18T06:51:30.031Z,-3.40
2022-12-18T06:54:52.075Z,-3.43
2022-12-18T06:58:01.028Z,-3.42
2022-12-18T07:01:12.135Z,-3.44
2022-12-18T07:04:27.038Z,-3.41
2022-12-18T07:07:28.912Z,-3.35
2022-12-18T07:10:55.953Z,-3.24
2022-12-18T07:14:11.366Z,-3.22
2022-12-18T07:17:26.031Z,-3.12
2022-12-18T07:20:34.766Z,-3.11
2022-12-18T07:23:44.030Z,-3.08
2022-12-18T07:26:59.052Z,-3.03
2022-12-18T07:30:00.947Z,-2.97
2022-12-18T07:33:16.021Z,-2.87
2022-12-18T07:36:24.622Z,-2.87
2022-12-18T07:39:39.017Z,-2.76
2022-12-18T07:42:54.041Z,-2.62
2022-12-18T07:46:03.370Z,-2.45
2022-12-18T07:49:18.033Z,-2.34
2022-12-18T07:52:33.022Z,-2.26
2022-12-18T07:56:24.886Z,-2.23
2022-12-18T07:59:12.909Z,-2.11
2022-12-18T08:02:28.089Z,-2.16
2022-12-18T08:05:37.024Z,-1.98
2022-12-18T08:08:45.755Z,-1.95
2022-12-18T08:12:01.020Z,-1.86
2022-12-18T08:15:03.357Z,-1.80
2022-12-18T08:18:26.017Z,-1.69
2022-12-18T08:21:37.125Z,-1.63
2022-12-18T08:24:46.241Z,-1.55
2022-12-18T08:28:01.028Z,-1.42
2022-12-18T08:31:10.148Z,-1.31
2022-12-18T08:34:25.020Z,-1.22
2022-12-18T08:37:40.033Z,-1.15
2022-12-18T08:40:42.218Z,-1.14
2022-12-18T08:43:57.015Z,-1.03
2022-12-18T08:47:14.038Z,-0.95
2022-12-18T08:50:29.004Z,-0.78
2022-12-18T08:53:45.041Z,-0.62
2022-12-18T08:56:54.008Z,-0.45
2022-12-18T09:00:04.116Z,-0.31
2022-12-18T09:03:13.047Z,-0.26
2022-12-18T09:06:30.013Z,-0.14
2022-12-18T09:09:40.379Z,0.02
2022-12-18T09:12:52.007Z,0.15
2022-12-18T09:16:14.015Z,0.34
2022-12-18T09:19:22.729Z,0.49
2022-12-18T09:22:31.015Z,0.60
2022-12-18T09:25:46.018Z,0.77
2022-12-18T09:29:02.023Z,0.99
2022-12-18T09:32:22.202Z,1.12
2022-12-18T09:35:24.422Z,1.17
2022-12-18T09:38:39.279Z,1.47
2022-12-18T09:42:04.045Z,1.65
2022-12-18T09:45:16.052Z,1.76
2022-12-18T09:48:39.373Z,1.88
2022-12-18T09:52:00.090Z,2.14
2022-12-18T09:55:37.163Z,2.32
2022-12-18T09:59:02.014Z,2.45
2022-12-18T10:02:34.077Z,2.41
2022-12-18T10:05:42.509Z,2.54
2022-12-18T10:08:56.991Z,2.78
2022-12-18T10:12:22.000Z,2.80
2022-12-18T10:15:53.384Z,2.77
2022-12-18T10:19:11.032Z,2.82
2022-12-18T10:22:51.023Z,2.85
2022-12-18T10:26:09.989Z,2.94
2022-12-18T10:29:26.028Z,2.97
2022-12-18T10:32:34.677Z,2.89
2022-12-18T10:35:44.031Z,2.84
2022-12-18T10:38:58.993Z,2.89
2022-12-18T10:42:25.995Z,2.70
2022-12-18T10:45:35.025Z,2.55
2022-12-18T10:48:56.014Z,2.51
2022-12-18T10:52:07.157Z,2.52
2022-12-18T10:55:24.987Z,2.49
2022-12-18T10:58:37.983Z,2.34
2022-12-18T11:01:50.260Z,2.40
2022-12-18T11:05:09.592Z,2.34
2022-12-18T11:08:22.333Z,2.32
2022-12-18T11:11:38.989Z,2.24
2022-12-18T11:14:51.331Z,2.13
2022-12-18T11:18:13.717Z,2.04
2022-12-18T11:21:16.469Z,2.09
2022-12-18T11:24:37.980Z,2.08
2022-12-18T11:27:41.174Z,2.18
2022-12-18T11:30:56.056Z,2.19
2022-12-18T11:34:29.997Z,2.24
2022-12-18T11:37:48.975Z,2.22
2022-12-18T11:41:11.013Z,2.18
2022-12-18T11:44:22.985Z,2.15
2022-12-18T11:48:12.008Z,2.14
2022-12-18T11:51:42.986Z,2.14
2022-12-18T11:54:50.986Z,2.13
2022-12-18T11:58:46.987Z,2.13
2022-12-18T12:02:03.069Z,2.17
2022-12-18T12:05:19.708Z,2.15
2022-12-18T12:09:01.988Z,2.14
2022-12-18T12:12:35.979Z,2.13
2022-12-18T12:16:08.006Z,2.05
2022-12-18T12:19:44.976Z,2.11
2022-12-18T12:23:07.717Z,2.16
2022-12-18T12:26:39.003Z,2.23
2022-12-18T12:30:10.398Z,2.23
2022-12-18T12:33:45.024Z,2.21
2022-12-18T12:37:37.954Z,2.19
2022-12-18T12:41:02.493Z,2.17
2022-12-18T12:44:24.985Z,2.20
2022-12-18T12:47:40.340Z,2.21
2022-12-18T12:50:57.976Z,2.24
2022-12-18T12:54:08.030Z,2.34
2022-12-18T12:57:44.973Z,2.36
2022-12-18T13:01:10.054Z,2.35
2022-12-18T13:05:15.987Z,2.34
2022-12-18T13:08:30.954Z,2.35
2022-12-18T13:11:57.838Z,2.27
2022-12-18T13:15:29.994Z,2.26
2022-12-18T13:18:46.039Z,2.21
2022-12-18T13:21:56.912Z,2.13
2022-12-18T13:25:39.993Z,2.22
2022-12-18T13:28:54.971Z,2.22
2022-12-18T13:32:09.982Z,2.17
2022-12-18T13:35:25.017Z,2.14
2022-12-18T13:38:39.875Z,2.12
2022-12-18T13:42:14.951Z,2.07
2022-12-18T13:46:12.982Z,2.08
2022-12-18T13:49:15.246Z,2.02
2022-12-18T13:52:34.005Z,2.00
2022-12-18T13:55:46.263Z,1.97
2022-12-18T13:59:18.567Z,1.92
2022-12-18T14:02:36.083Z,1.88
2022-12-18T14:06:05.966Z,1.87
2022-12-18T14:09:27.133Z,1.85
2022-12-18T14:12:43.982Z,1.76
2022-12-18T14:15:55.962Z,1.72
2022-12-18T14:19:19.972Z,1.68
2022-12-18T14:22:28.990Z,1.62
2022-12-18T14:25:38.979Z,1.59
2022-12-18T14:28:54.991Z,1.55
2022-12-18T14:32:11.789Z,1.43
2022-12-18T14:35:28.057Z,1.35
2022-12-18T14:38:40.681Z,1.29
2022-12-18T14:41:48.953Z,1.23
2022-12-18T14:45:45.229Z,1.16
2022-12-18T14:48:54.448Z,1.05
2022-12-18T14:52:08.960Z,0.93
2022-12-18T14:55:22.147Z,0.88
2022-12-18T14:58:38.014Z,0.78
2022-12-18T15:02:21.213Z,0.68
2022-12-18T15:05:39.824Z,0.53
2022-12-18T15:08:56.125Z,0.34
2022-12-18T15:12:00.459Z,0.32
2022-12-18T15:15:43.039Z,0.20
2022-12-18T15:18:53.890Z,0.07
2022-12-18T15:22:10.397Z,-0.05
2022-12-18T15:25:43.422Z,-0.11
2022-12-18T15:29:01.431Z,-0.17
2022-12-18T15:32:12.984Z,-0.25
2022-12-18T15:35:31.301Z,-0.27
2022-12-18T15:38:34.079Z,-0.29
2022-12-18T15:41:50.306Z,-0.32
2022-12-18T15:44:58.901Z,-0.39
2022-12-18T15:48:08.404Z,-0.47
2022-12-18T15:51:24.856Z,-0.51
2022-12-18T15:54:34.131Z,-0.54
2022-12-18T15:57:42.773Z,-0.57
2022-12-18T16:00:58.515Z,-0.60
2022-12-18T16:04:08.459Z,-0.65
2022-12-18T16:07:30.527Z,-0.69
2022-12-18T16:10:33.451Z,-0.76
2022-12-18T16:13:50.585Z,-0.74
2022-12-18T16:17:19.443Z,-0.76
2022-12-18T16:20:23.962Z,-0.79
2022-12-18T16:23:41.693Z,-0.86
2022-12-18T16:26:45.167Z,-0.90
2022-12-18T16:30:01.417Z,-0.92
2022-12-18T16:33:18.433Z,-0.93
2022-12-18T16:36:27.276Z,-0.92
2022-12-18T16:39:45.399Z,-0.97
2022-12-18T16:42:48.249Z,-1.04
2022-12-18T16:46:06.459Z,-1.10
2022-12-18T16:49:09.819Z,-1.15
2022-12-18T16:52:27.398Z,-1.20
2022-12-18T16:55:43.536Z,-1.22
2022-12-18T16:59:04.396Z,-1.25
2022-12-18T17:02:28.645Z,-1.26
2022-12-18T17:05:31.755Z,-1.31
2022-12-18T17:08:47.350Z,-1.38
2022-12-18T17:12:04.513Z,-1.39
2022-12-18T17:15:19.947Z,-1.49
2022-12-18T17:18:37.443Z,-1.52
2022-12-18T17:21:55.375Z,-1.52
2022-12-18T17:25:12.452Z,-1.55
2022-12-18T17:28:21.294Z,-1.56
2022-12-18T17:31:40.275Z,-1.55
2022-12-18T17:34:50.989Z,-1.57
2022-12-18T17:38:05.953Z,-1.59
2022-12-18T17:41:21.387Z,-1.60
2022-12-18T17:44:30.350Z,-1.62
2022-12-18T17:47:47.990Z,-1.65
2022-12-18T17:51:11.309Z,-1.65
2022-12-18T17:54:20.447Z,-1.67
2022-12-18T17:57:35.924Z,-1.67
2022-12-18T18:00:46.401Z,-1.73
2022-12-18T18:03:55.937Z,-1.76
2022-12-18T18:07:11.398Z,-1.79
2022-12-18T18:10:20.077Z,-1.78
2022-12-18T18:13:39.761Z,-1.83
2022-12-18T18:17:04.951Z,-1.83
2022-12-18T18:20:23.402Z,-1.85
2022-12-18T18:23:33.652Z,-1.87
2022-12-18T18:26:42.952Z,-1.95
2022-12-18T18:29:59.143Z,-1.86
2022-12-18T18:33:14.941Z,-1.83
2022-12-18T18:36:18.188Z,-1.85
2022-12-18T18:39:34.287Z,-1.93
2022-12-18T18:42:50.254Z,-1.91
2022-12-18T18:46:04.356Z,-1.93
2022-12-18T18:49:14.263Z,-1.96
2022-12-18T18:52:23.403Z,-1.99
2022-12-18T18:55:42.287Z,-2.01
2022-12-18T18:58:51.486Z,-2.06
2022-12-18T19:02:00.724Z,-2.10
2022-12-18T19:05:20.340Z,-2.09
2022-12-18T19:08:24.998Z,-2.09
2022-12-18T19:11:41.112Z,-2.16
2022-12-18T19:14:51.367Z,-2.21
2022-12-18T19:18:13.153Z,-2.28
2022-12-18T19:21:15.850Z,-2.34
2022-12-18T19:24:32.386Z,-2.29
2022-12-18T19:27:41.108Z,-2.26
2022-12-18T19:30:59.391Z,-2.28
2022-12-18T19:34:09.760Z,-2.34
2022-12-18T19:37:20.306Z,-2.38
2022-12-18T19:40:36.207Z,-2.40
2022-12-18T19:43:38.986Z,-2.38
2022-12-18T19:46:58.203Z,-2.44
2022-12-18T19:50:08.052Z,-2.45
2022-12-18T19:53:24.443Z,-2.44
2022-12-18T19:56:42.492Z,-2.45
2022-12-18T19:59:51.908Z,-2.47
2022-12-18T20:03:18.385Z,-2.81
2022-12-18T20:06:37.948Z,-2.66
2022-12-18T20:10:00.412Z,-2.57
2022-12-18T20:13:19.402Z,-2.59
2022-12-18T20:16:28.293Z,-2.61
2022-12-18T20:19:50.343Z,-2.62
2022-12-18T20:22:53.215Z,-2.60
2022-12-18T20:26:09.161Z,-2.58
2022-12-18T20:29:18.191Z,-2.60
2022-12-18T20:32:37.110Z,-2.69
2022-12-18T20:35:46.295Z,-2.63
2022-12-18T20:39:04.026Z,-2.67
2022-12-18T20:42:14.018Z,-2.65
2022-12-18T20:45:22.765Z,-2.70
2022-12-18T20:48:33.058Z,-2.69
2022-12-18T20:51:50.288Z,-2.73
2022-12-18T20:55:09.358Z,-2.72
2022-12-18T20:58:25.296Z,-2.72
2022-12-18T21:01:33.914Z,-2.71
2022-12-18T21:04:50.263Z,-2.64
2022-12-18T21:07:58.920Z,-2.65
2022-12-18T21:11:17.577Z,-2.61
2022-12-18T21:14:28.915Z,-2.58
2022-12-18T21:17:51.161Z,-2.56
2022-12-18T21:20:59.597Z,-2.53
2022-12-18T21:24:16.020Z,-2.52
2022-12-18T21:27:24.881Z,-2.52
2022-12-18T21:30:39.948Z,-2.59
2022-12-18T21:33:48.945Z,-2.39
2022-12-18T21:37:01.884Z,-2.20
2022-12-18T21:40:11.900Z,-2.14
2022-12-18T21:43:26.926Z,-2.11
2022-12-18T21:46:28.915Z,-2.11
2022-12-18T21:49:43.878Z,-2.08
2022-12-18T21:52:58.957Z,-2.09
2022-12-18T21:56:02.172Z,-2.09
2022-12-18T21:59:16.921Z,-2.08
2022-12-18T22:02:27.085Z,-2.12
2022-12-18T22:05:35.523Z,-2.18
2022-12-18T22:08:44.907Z,-2.20
2022-12-18T22:11:59.871Z,-2.24
2022-12-18T22:15:21.373Z,-2.29
2022-12-18T22:18:37.161Z,-2.33
2022-12-18T22:21:54.865Z,-2.37
2022-12-18T22:25:09.864Z,-2.53
2022-12-18T22:28:24.893Z,-2.59
2022-12-18T22:31:33.947Z,-2.67
2022-12-18T22:34:49.886Z,-2.70
2022-12-18T22:38:05.878Z,-2.76
2022-12-18T22:41:14.899Z,-2.76
2022-12-18T22:44:29.878Z,-2.80
2022-12-18T22:47:39.161Z,-2.83
2022-12-18T22:50:55.984Z,-2.84
2022-12-18T22:54:07.568Z,-2.97
2022-12-18T22:57:15.854Z,-2.78
2022-12-18T23:00:30.902Z,-2.79
2022-12-18T23:03:45.955Z,-2.82
2022-12-18T23:06:48.045Z,-2.79
2022-12-18T23:10:02.858Z,-2.75
2022-12-18T23:13:17.889Z,-2.82
2022-12-18T23:16:21.199Z,-2.74
2022-12-18T23:19:48.577Z,-2.68
2022-12-18T23:22:51.091Z,-2.73
2022-12-18T23:26:11.858Z,-2.60
2022-12-18T23:29:26.879Z,-2.64
2022-12-18T23:32:34.864Z,-2.57
2022-12-18T23:35:44.470Z,-2.59
2022-12-18T23:39:01.860Z,-2.51
2022-12-18T23:42:10.862Z,-2.48
2022-12-18T23:45:22.484Z,-2.45
2022-12-18T23:48:30.842Z,-2.48
2022-12-18T23:51:45.881Z,-2.50
2022-12-18T23:55:00.875Z,-2.48
2022-12-18T23:58:27.871Z,-2.38
